Messwerte Skyros

Temperatur

Temperatur
°C
1576260000 20.00 20.00 11
1576263600 21.00 21.00
1576267200 22.00 22.00
1576270800 23.00 23.00 12
1576274400 0.00 0.00
1576278000 1.00 1.00
1576281600 2.00 2.00 13
1576285200 3.00 3.00
1576288800 4.00 4.00
1576292400 5.00 5.00 14
1576296000 6.00 6.00 16
1576299600 7.00 7.00 16
1576303200 8.00 8.00 16
1576306800 9.00 9.00 16
1576310400 10.00 10.00 15
1576314000 11.00 11.00 15
1576317600 12.00 12.00 16
1576321200 13.00 13.00 14
1576324800 14.00 14.00 15
1576328400 15.00 15.00 14
1576332000 16.00 16.00 14
1576335600 17.00 17.00 14
1576339200 18.00 18.00 13
1576342800 19.00 19.00 13

Aktuellste Messwerte

Wettercharakter
Wetter: freundlich
Temperatur
13 °C
Feuchtigkeit
94 %
Wind
0 km/h, -
Luftdruck
1000 hPa
Messzeit: 14. Dezember 2019, 20.00Datenquelle: METAR

Weitere Messstationen in der Nähe

Messstation Temperatur Entfernung
Tanagra 10 °C 110 km
Limnos 16 °C 124 km
Elefsis 12 °C 129 km
Athen 13 °C 136 km
Anchialos 12 °C 148 km
Chios 15 °C 160 km
Syros 13 °C 175 km

Wind

Windrichtung Böen Mittelwind
° km/h km/h
1576260000 20.00 19.00 - 20.00 0
1576263600 21.00 20.00 - 21.00
1576267200 22.00 21.00 - 22.00
1576270800 23.00 22.00 - 23.00 160° 10
1576274400 0.00 23.00 - 0.00
1576278000 1.00 0.00 - 1.00
1576281600 2.00 1.00 - 2.00 180° 20
1576285200 3.00 2.00 - 3.00
1576288800 4.00 3.00 - 4.00
1576292400 5.00 4.00 - 5.00 170° 25
1576296000 6.00 5.00 - 6.00 170° 25
1576299600 7.00 6.00 - 7.00 160° 45 30
1576303200 8.00 7.00 - 8.00 150° 45 20
1576306800 9.00 8.00 - 9.00 150° 45 25
1576310400 10.00 9.00 - 10.00 150° 50 30
1576314000 11.00 10.00 - 11.00 150° 50 30
1576317600 12.00 11.00 - 12.00 160° 55 30
1576321200 13.00 12.00 - 13.00 160° 55 30
1576324800 14.00 13.00 - 14.00 150° 50 30
1576328400 15.00 14.00 - 15.00 150° 20
1576332000 16.00 15.00 - 16.00 120° 10
1576335600 17.00 16.00 - 17.00 170° 5
1576339200 18.00 17.00 - 18.00 0
1576342800 19.00 18.00 - 19.00 0

Ihre Wetterstation

Fehlt Ihre Wetterstation auf unserem Portal?

Schreiben Sie an network@meteonews.ch

Klima

Wann ist es am wärmsten? Wann regnet es am wenigsten? Unsere Klimadaten geben Auskunft.